Time;durP1;ratioP1;P1;durP2;ratioP2;P2;SDS_P1;SDS_P2;PMS_P1;PMS_P2;Temp;Humidity;BMP_temperature;BMP_pressure;BME280_temperature;BME280_humidity;BME280_pressure;Samples;Min_cycle;Max_cycle;Signal;HPM_P1;HPM_P2
2022/08/08 00:00:25;;;;;;;15.45;7.40;;;;;;;15.26;71.14;102386.28;5104533;28;20031;-56
2022/08/08 00:03:03;;;;;;;14.07;6.97;;;;;;;15.27;71.06;102382.59;5101523;28;20091;-55
2022/08/08 00:05:47;;;;;;;12.23;7.25;;;;;;;15.26;71.23;102391.63;5113459;28;20035;-56
2022/08/08 00:08:27;;;;;;;15.13;7.72;;;;;;;15.15;71.59;102390.88;5113223;28;20031;-55
2022/08/08 00:11:07;;;;;;;16.17;7.43;;;;;;;15.14;72.07;102394.53;5113803;28;20077;-56
2022/08/08 00:13:51;;;;;;;13.32;6.93;;;;;;;14.88;73.13;102387.28;5105027;28;20024;-55
2022/08/08 00:16:28;;;;;;;13.07;6.60;;;;;;;14.98;72.30;102389.88;5110623;28;20363;-54
2022/08/08 00:19:08;;;;;;;12.48;7.25;;;;;;;14.77;73.05;102398.19;5111784;28;20027;-55
2022/08/08 00:21:41;;;;;;;9.88;7.32;;;;;;;14.89;73.33;102396.13;5102660;28;20471;-56
2022/08/08 00:24:23;;;;;;;14.10;7.30;;;;;;;14.95;72.10;102386.69;5112271;28;20055;-55
2022/08/08 00:26:54;;;;;;;12.20;7.22;;;;;;;14.90;72.06;102395.97;5100872;28;20024;-54
2022/08/08 00:29:26;;;;;;;12.27;7.63;;;;;;;14.86;72.50;102391.09;5112048;28;20031;-55
2022/08/08 00:31:58;;;;;;;11.05;6.95;;;;;;;14.92;72.29;102398.50;5111560;28;20164;-55
2022/08/08 00:38:00;;;;;;;11.23;8.13;;;;;;;14.98;71.61;102399.72;5111273;28;20043;-55
2022/08/08 00:40:34;;;;;;;13.00;7.85;;;;;;;14.91;72.30;102395.00;5113445;28;20533;-55
2022/08/08 00:43:49;;;;;;;13.05;9.05;;;;;;;14.88;72.61;102395.31;5101476;28;20484;-55
2022/08/08 00:46:45;;;;;;;11.18;8.18;;;;;;;14.95;72.27;102400.03;5095013;28;20050;-54
2022/08/08 00:49:26;;;;;;;14.93;8.20;;;;;;;14.90;72.73;102404.00;5101143;28;20040;-54
2022/08/08 00:52:08;;;;;;;12.55;8.77;;;;;;;15.04;72.57;102399.09;5112257;28;20031;-55
2022/08/08 00:54:49;;;;;;;11.82;8.32;;;;;;;15.05;73.17;102390.94;5104948;28;20032;-54
2022/08/08 00:57:39;;;;;;;12.60;8.52;;;;;;;15.10;73.20;102387.81;5104178;28;20020;-55
2022/08/08 01:00:13;;;;;;;13.18;9.10;;;;;;;15.12;73.69;102387.66;5111569;28;20023;-53
2022/08/08 01:02:57;;;;;;;14.48;7.45;;;;;;;15.00;72.57;102392.41;5108656;28;20047;-56
2022/08/08 01:05:41;;;;;;;12.43;7.70;;;;;;;15.02;72.44;102390.41;5108767;28;20062;-56
2022/08/08 01:08:47;;;;;;;11.98;8.00;;;;;;;15.00;71.90;102390.56;5106492;28;20555;-55
2022/08/08 01:11:49;;;;;;;13.73;8.50;;;;;;;14.85;72.56;102384.91;5099616;28;20475;-57
2022/08/08 01:14:23;;;;;;;11.75;8.50;;;;;;;14.67;73.78;102382.22;5110613;28;20469;-55
2022/08/08 01:17:18;;;;;;;13.52;8.45;;;;;;;14.73;73.95;102380.75;5105172;28;20032;-56
2022/08/08 01:20:09;;;;;;;14.38;9.30;;;;;;;14.73;74.25;102381.59;5094497;28;20062;-55
2022/08/08 01:23:11;;;;;;;10.88;7.82;;;;;;;14.54;73.38;102382.56;5107996;28;20027;-56
2022/08/08 01:26:04;;;;;;;11.02;8.13;;;;;;;14.60;73.52;102386.47;5110712;28;20039;-57
2022/08/08 01:28:48;;;;;;;11.18;7.72;;;;;;;14.63;73.44;102386.16;5110418;28;20023;-54
2022/08/08 01:31:50;;;;;;;14.07;8.77;;;;;;;14.52;73.74;102384.56;5110760;28;20395;-56
2022/08/08 01:34:53;;;;;;;13.73;9.40;;;;;;;14.57;73.38;102379.63;5099013;28;20093;-56
2022/08/08 01:37:52;;;;;;;14.82;9.48;;;;;;;14.44;73.93;102381.78;5111070;28;20080;-54
2022/08/08 01:40:47;;;;;;;14.10;9.00;;;;;;;14.50;73.69;102370.50;5108113;28;20032;-55
2022/08/08 01:43:27;;;;;;;12.88;9.38;;;;;;;14.31;74.59;102377.63;5104955;28;20093;-56
2022/08/08 01:46:00;;;;;;;12.73;8.82;;;;;;;14.32;74.02;102378.47;5102897;28;20051;-56
2022/08/08 01:48:51;;;;;;;13.23;8.85;;;;;;;14.28;73.90;102372.59;5104423;28;20027;-56
2022/08/08 01:51:50;;;;;;;13.50;8.82;;;;;;;14.18;74.48;102371.81;5103500;28;20028;-56
2022/08/08 01:54:51;;;;;;;12.25;8.55;;;;;;;14.13;74.15;102375.75;5106011;28;20118;-56
2022/08/08 01:57:31;;;;;;;13.65;8.63;;;;;;;14.03;74.25;102382.97;5104580;28;20059;-55
2022/08/08 02:00:06;;;;;;;13.40;8.50;;;;;;;14.01;74.36;102381.44;5103378;28;20110;-56
2022/08/08 02:02:40;;;;;;;14.80;9.23;;;;;;;13.87;75.25;102382.75;5104568;28;20046;-57
2022/08/08 02:05:19;;;;;;;11.80;8.85;;;;;;;13.82;75.96;102391.19;5108776;28;20432;-55
2022/08/08 02:08:15;;;;;;;14.15;9.07;;;;;;;13.82;75.32;102388.53;5105930;28;20425;-56
2022/08/08 02:11:14;;;;;;;11.80;8.65;;;;;;;13.76;75.39;102381.09;5110913;28;20035;-55
2022/08/08 02:14:00;;;;;;;13.82;9.07;;;;;;;13.68;75.47;102387.16;5107559;28;20088;-53
2022/08/08 02:16:49;;;;;;;13.25;8.82;;;;;;;13.65;76.06;102388.28;5111216;28;20050;-57
2022/08/08 02:19:24;;;;;;;14.20;9.80;;;;;;;13.69;76.77;102383.50;5107243;28;20031;-56
2022/08/08 02:24:54;;;;;;;15.02;9.25;;;;;;;13.77;77.50;102388.13;5109060;28;20401;-55
2022/08/08 02:27:27;;;;;;;15.15;10.27;;;;;;;13.77;77.59;102380.94;5104659;28;20066;-55
2022/08/08 02:30:03;;;;;;;15.15;9.27;;;;;;;13.79;76.77;102389.66;5113308;28;20031;-55
2022/08/08 02:32:38;;;;;;;14.43;8.15;;;;;;;13.66;76.77;102383.78;5107559;28;20358;-55
2022/08/08 02:35:17;;;;;;;14.80;8.50;;;;;;;13.49;76.83;102394.19;5105952;28;20051;-56
2022/08/08 02:38:14;;;;;;;12.63;9.32;;;;;;;13.61;77.01;102391.38;5115643;28;20484;-56
2022/08/08 02:40:45;;;;;;;16.02;8.82;;;;;;;13.41;77.10;102391.34;5114495;28;20054;-58
2022/08/08 02:43:47;;;;;;;12.25;7.82;;;;;;;13.58;76.07;102390.66;5110527;28;20052;-56
2022/08/08 02:46:46;;;;;;;12.25;8.93;;;;;;;13.39;77.49;102382.69;5114612;28;20114;-56
2022/08/08 02:49:17;;;;;;;12.68;9.00;;;;;;;13.44;77.39;102380.44;5105758;28;20032;-55
2022/08/08 02:51:52;;;;;;;12.40;8.45;;;;;;;13.34;77.57;102380.44;5106910;28;20387;-56
2022/08/08 02:54:39;;;;;;;13.85;9.65;;;;;;;13.13;78.58;102383.25;5113935;28;20028;-55
2022/08/08 02:57:27;;;;;;;12.90;9.30;;;;;;;13.32;78.20;102383.25;5115085;28;20055;-56
2022/08/08 02:59:58;;;;;;;13.45;10.10;;;;;;;13.33;78.94;102384.09;5106838;28;20031;-55
2022/08/08 03:03:17;;;;;;;13.13;8.70;;;;;;;13.38;77.34;102381.00;5112612;28;20035;-56
2022/08/08 03:05:55;;;;;;;13.98;9.20;;;;;;;13.32;77.45;102403.69;5105161;28;20028;-55
2022/08/08 03:08:26;;;;;;;14.43;9.82;;;;;;;13.25;77.52;102395.44;5109809;28;20036;-55
2022/08/08 03:11:09;;;;;;;13.32;10.15;;;;;;;13.22;77.46;102398.38;5112213;28;20028;-57
2022/08/08 03:13:46;;;;;;;15.30;10.02;;;;;;;13.14;77.60;102393.78;5103662;28;20545;-55
2022/08/08 03:16:38;;;;;;;13.90;9.95;;;;;;;13.15;77.86;102397.28;5107652;28;20030;-54
2022/08/08 03:19:16;;;;;;;17.15;10.00;;;;;;;13.07;78.24;102391.81;5093669;28;20032;-60
2022/08/08 03:21:41;;;;;;;14.00;9.25;;;;;;;12.96;77.91;102396.28;5104562;28;20521;-55
2022/08/08 03:24:06;;;;;;;13.13;9.18;;;;;;;12.97;77.68;102400.63;5108566;28;20043;-56
2022/08/08 03:26:38;;;;;;;12.73;8.93;;;;;;;12.92;78.66;102394.88;5101776;28;20028;-55
2022/08/08 03:29:07;;;;;;;15.20;9.35;;;;;;;12.84;78.88;102394.72;5111315;28;20573;-56
2022/08/08 03:34:18;;;;;;;14.27;9.95;;;;;;;12.87;78.73;102397.09;5109966;28;20100;-56
2022/08/08 03:36:43;;;;;;;13.77;9.15;;;;;;;12.83;79.20;102401.03;5112065;28;20027;-55
2022/08/08 03:39:13;;;;;;;17.48;9.63;;;;;;;12.80;79.12;102409.28;5113230;28;20483;-55
2022/08/08 03:41:39;;;;;;;13.02;9.20;;;;;;;12.86;78.36;102398.94;5105775;27;20035;-56
2022/08/08 03:44:04;;;;;;;14.07;9.10;;;;;;;12.87;78.49;102400.63;5108596;28;20040;-55
2022/08/08 03:46:29;;;;;;;18.13;9.77;;;;;;;12.88;78.95;102396.16;5105240;28;20512;-55
2022/08/08 03:48:59;;;;;;;16.80;9.90;;;;;;;12.94;78.49;102400.06;5102142;28;20028;-56
2022/08/08 03:51:26;;;;;;;15.48;10.02;;;;;;;12.95;78.30;102401.75;5107490;28;20019;-56
2022/08/08 03:53:52;;;;;;;15.27;10.77;;;;;;;12.98;78.59;102404.97;5101429;28;20036;-55
2022/08/08 03:56:19;;;;;;;14.02;10.63;;;;;;;13.05;78.71;102408.78;5107894;28;20023;-56
2022/08/08 03:58:49;;;;;;;17.02;11.50;;;;;;;13.11;79.64;102407.38;5113093;28;20114;-55
2022/08/08 04:01:15;;;;;;;17.08;11.57;;;;;;;13.08;79.32;102406.81;5104561;28;20372;-55
2022/08/08 04:03:44;;;;;;;17.67;12.20;;;;;;;13.19;79.59;102420.00;5105377;28;20103;-55
2022/08/08 04:06:09;;;;;;;18.33;11.95;;;;;;;13.17;80.63;102417.47;5111138;28;20027;-56
2022/08/08 04:08:36;;;;;;;20.48;13.10;;;;;;;13.21;81.35;102420.69;5114296;28;20032;-56
2022/08/08 04:11:04;;;;;;;16.38;10.68;;;;;;;13.18;79.53;102423.63;5111107;28;20088;-56
2022/08/08 04:13:29;;;;;;;16.08;10.30;;;;;;;13.14;78.57;102427.56;5113470;27;20031;-53
2022/08/08 04:15:54;;;;;;;15.88;10.93;;;;;;;13.12;79.05;102429.53;5125712;27;20569;-56
2022/08/08 04:18:19;;;;;;;18.05;12.90;;;;;;;13.16;79.83;102425.59;5107284;28;20126;-55
2022/08/08 04:20:45;;;;;;;16.77;12.50;;;;;;;13.10;81.16;102420.81;5110841;28;20027;-55
2022/08/08 04:23:10;;;;;;;18.52;12.25;;;;;;;13.14;80.91;102422.22;5112042;28;20096;-55
2022/08/08 04:25:35;;;;;;;20.98;13.02;;;;;;;13.19;80.98;102420.81;5110808;28;20051;-58
2022/08/08 04:28:01;;;;;;;18.95;12.60;;;;;;;13.18;80.48;102415.66;5111746;28;20042;-55
2022/08/08 04:30:27;;;;;;;22.10;13.30;;;;;;;13.22;81.19;102426.88;5111823;27;20031;-54
2022/08/08 04:32:53;;;;;;;18.67;13.25;;;;;;;13.22;81.33;102424.19;5113159;28;20055;-53
2022/08/08 04:35:18;;;;;;;20.35;13.50;;;;;;;13.25;81.62;102427.41;5113070;28;20070;-53
2022/08/08 04:37:44;;;;;;;17.90;13.27;;;;;;;13.28;81.43;102424.47;5113651;28;20032;-53
2022/08/08 04:40:10;;;;;;;18.38;12.93;;;;;;;13.28;80.98;102428.97;5114072;27;20035;-52
2022/08/08 04:42:35;;;;;;;19.17;12.88;;;;;;;13.29;80.71;102428.84;5104617;28;20543;-54
2022/08/08 04:45:01;;;;;;;20.02;13.52;;;;;;;13.35;81.85;102437.22;5104335;28;20126;-55
2022/08/08 04:47:27;;;;;;;18.85;12.25;;;;;;;13.30;80.96;102445.63;5112888;28;20640;-53
2022/08/08 04:49:52;;;;;;;18.48;11.35;;;;;;;13.16;80.22;102446.88;5115774;27;20106;-53
2022/08/08 04:52:17;;;;;;;20.40;11.88;;;;;;;13.23;80.19;102449.84;5112001;28;20491;-54
2022/08/08 04:54:43;;;;;;;22.52;12.23;;;;;;;13.25;80.16;102450.53;5111611;28;20036;-55
2022/08/08 04:57:09;;;;;;;20.27;12.00;;;;;;;13.14;80.84;102454.19;5109775;28;20032;-57
2022/08/08 04:59:34;;;;;;;20.60;13.35;;;;;;;13.01;81.31;102460.63;5101017;28;20028;-58
2022/08/08 05:01:59;;;;;;;18.77;12.85;;;;;;;13.00;81.81;102461.59;5109584;28;20087;-58
2022/08/08 05:04:25;;;;;;;22.15;12.40;;;;;;;13.08;80.75;102460.91;5111552;28;20110;-57
2022/08/08 05:06:50;;;;;;;17.27;11.93;;;;;;;13.15;80.60;102466.53;5113289;28;20035;-57
2022/08/08 05:09:16;;;;;;;21.33;12.63;;;;;;;13.16;80.64;102468.19;5113062;27;20030;-57
2022/08/08 05:11:41;;;;;;;20.65;12.77;;;;;;;13.19;80.89;102467.94;5096389;28;20036;-58
2022/08/08 05:14:07;;;;;;;19.45;13.02;;;;;;;13.25;81.07;102463.88;5108212;28;20035;-57
2022/08/08 05:16:32;;;;;;;19.50;13.35;;;;;;;13.29;81.30;102468.78;5108652;28;20024;-57
2022/08/08 05:18:58;;;;;;;20.38;13.57;;;;;;;13.21;82.69;102471.28;5111152;28;20479;-58
2022/08/08 05:21:24;;;;;;;20.92;13.38;;;;;;;13.32;81.76;102476.50;5119376;27;20028;-53
2022/08/08 05:23:49;;;;;;;18.65;12.52;;;;;;;13.39;81.65;102473.28;5109528;28;20019;-54
2022/08/08 05:26:14;;;;;;;19.50;13.07;;;;;;;13.37;83.63;102476.06;5098505;28;20019;-55
2022/08/08 05:28:40;;;;;;;21.88;13.65;;;;;;;13.44;83.24;102476.34;5107051;28;20035;-54
2022/08/08 05:31:05;;;;;;;17.40;13.10;;;;;;;13.52;83.58;102473.84;5107297;28;20040;-54
2022/08/08 05:33:31;;;;;;;22.20;13.75;;;;;;;13.57;83.38;102471.63;5103262;28;20035;-56
2022/08/08 05:36:00;;;;;;;19.80;13.52;;;;;;;13.58;83.76;102473.28;5105895;28;20116;-57
2022/08/08 05:38:28;;;;;;;20.17;13.55;;;;;;;13.66;83.66;102469.09;5107948;28;20030;-53
2022/08/08 05:40:53;;;;;;;18.48;13.35;;;;;;;13.76;83.50;102472.56;5105665;27;20155;-55
2022/08/08 05:43:32;;;;;;;19.27;13.15;;;;;;;13.85;83.49;102471.72;5109146;28;20506;-57
2022/08/08 05:45:59;;;;;;;20.33;13.50;;;;;;;13.95;83.98;102478.84;5104825;28;20027;-58
2022/08/08 05:48:25;;;;;;;19.92;13.18;;;;;;;14.05;84.00;102474.34;5104902;28;20068;-58
2022/08/08 05:50:51;;;;;;;20.10;13.25;;;;;;;14.17;84.29;102477.69;5101250;28;20024;-58
2022/08/08 05:53:17;;;;;;;19.00;12.18;;;;;;;14.24;83.73;102477.94;5108097;28;20559;-58
2022/08/08 05:55:44;;;;;;;19.13;12.80;;;;;;;14.28;84.60;102484.66;5110164;28;20016;-57
2022/08/08 05:58:11;;;;;;;19.33;12.60;;;;;;;14.37;84.39;102480.28;5107404;28;20035;-57
2022/08/08 06:00:37;;;;;;;17.83;12.82;;;;;;;14.53;83.87;102487.66;5106161;28;20032;-58
2022/08/08 06:03:13;;;;;;;17.58;12.23;;;;;;;14.59;82.60;102480.88;5102096;28;20034;-59
2022/08/08 06:06:05;;;;;;;18.27;12.32;;;;;;;14.70;82.40;102488.69;5109355;28;20039;-57
2022/08/08 06:08:42;;;;;;;16.85;12.05;;;;;;;14.76;82.61;102484.63;5099438;28;20053;-57
2022/08/08 06:11:07;;;;;;;17.85;12.07;;;;;;;14.84;82.85;102489.25;5106626;28;20093;-60
2022/08/08 06:13:33;;;;;;;19.00;12.57;;;;;;;14.93;83.23;102486.50;5110129;28;20024;-55
2022/08/08 06:15:58;;;;;;;19.58;12.30;;;;;;;15.02;82.32;102483.91;5104391;28;20072;-52
2022/08/08 06:18:25;;;;;;;18.08;12.40;;;;;;;15.07;82.32;102492.31;5097255;28;20032;-51
2022/08/08 06:20:53;;;;;;;20.00;12.30;;;;;;;15.13;82.79;102489.03;5103864;28;20040;-48
2022/08/08 06:23:20;;;;;;;17.60;11.68;;;;;;;15.22;81.42;102497.13;5108129;28;20417;-50
2022/08/08 06:25:53;;;;;;;17.98;11.85;;;;;;;15.28;82.40;102496.53;5109142;28;20020;-53
2022/08/08 06:28:23;;;;;;;;;;;;;;;15.38;80.03;102499.97;5108296;28;20032;-51
2022/08/08 06:30:54;;;;;;;17.30;11.63;;;;;;;15.42;81.08;102504.03;5106480;28;19923;-48
2022/08/08 06:33:24;;;;;;;19.10;12.20;;;;;;;15.51;80.11;102506.75;5107162;28;20054;-53
2022/08/08 06:35:50;;;;;;;19.45;11.32;;;;;;;15.57;80.13;102511.50;5100690;28;20035;-52
2022/08/08 06:38:24;;;;;;;18.77;11.43;;;;;;;15.62;80.11;102513.69;5111248;28;20024;-54
2022/08/08 06:40:51;;;;;;;18.15;11.38;;;;;;;15.65;79.76;102511.59;5119142;28;20023;-53
2022/08/08 06:43:25;;;;;;;19.27;11.68;;;;;;;15.68;80.16;102513.09;5107864;28;20044;-53
2022/08/08 06:45:50;;;;;;;15.52;10.20;;;;;;;15.80;79.55;102516.38;5109524;28;20032;-52
2022/08/08 06:48:16;;;;;;;18.80;10.98;;;;;;;15.80;79.90;102511.88;5111978;28;20027;-51
2022/08/08 06:50:43;;;;;;;16.15;10.55;;;;;;;15.89;80.14;102519.94;5103414;28;20537;-53
2022/08/08 06:53:08;;;;;;;16.33;10.85;;;;;;;15.92;79.30;102520.50;5107221;28;20080;-51
2022/08/08 06:55:35;;;;;;;15.82;9.98;;;;;;;15.98;79.04;102514.53;5111940;28;20024;-50
2022/08/08 06:58:00;;;;;;;16.95;10.18;;;;;;;16.11;79.38;102523.97;5109398;28;20023;-51
2022/08/08 07:00:30;;;;;;;16.70;10.15;;;;;;;16.12;78.60;102515.81;5116633;28;20114;-52
2022/08/08 07:03:00;;;;;;;17.77;10.25;;;;;;;16.18;77.99;102519.66;5115048;28;20046;-54
2022/08/08 07:05:31;;;;;;;17.52;10.10;;;;;;;16.23;77.74;102522.72;5107771;28;20062;-51
2022/08/08 07:08:19;;;;;;;14.57;9.90;;;;;;;16.35;78.21;102530.47;5111624;28;20118;-51
2022/08/08 07:10:49;;;;;;;14.80;9.57;;;;;;;16.39;77.22;102521.16;5119285;27;20101;-51
2022/08/08 07:13:17;;;;;;;12.50;8.73;;;;;;;16.45;76.48;102530.38;5111850;28;20035;-53
2022/08/08 07:15:43;;;;;;;14.50;9.10;;;;;;;16.54;76.27;102527.56;5110084;28;20664;-50
2022/08/08 07:18:09;;;;;;;13.38;8.90;;;;;;;16.65;76.67;102522.94;5109608;28;20102;-53
2022/08/08 07:20:42;;;;;;;14.85;8.40;;;;;;;16.80;76.22;102532.06;5110405;27;20605;-53
2022/08/08 07:23:21;;;;;;;22.50;9.40;;;;;;;16.91;75.02;102540.78;5111568;27;20383;-54
2022/08/08 07:25:49;;;;;;;11.73;7.57;;;;;;;16.97;74.50;102542.81;5107489;28;20107;-51
2022/08/08 07:28:15;;;;;;;10.18;6.97;;;;;;;17.14;74.51;102550.94;5114175;28;20027;-54
2022/08/08 07:30:42;;;;;;;14.77;6.70;;;;;;;17.22;73.81;102537.53;5115439;27;20391;-51
2022/08/08 07:33:10;;;;;;;13.57;6.63;;;;;;;17.32;72.50;102538.22;5113078;28;20023;-54
2022/08/08 07:35:36;;;;;;;11.80;6.55;;;;;;;17.38;71.89;102539.44;5113745;28;20073;-53
2022/08/08 07:38:02;;;;;;;10.48;5.95;;;;;;;17.52;72.30;102540.59;5112362;28;20027;-53
2022/08/08 07:40:28;;;;;;;8.35;4.80;;;;;;;17.53;70.47;102539.63;5111112;27;20391;-51
2022/08/08 07:42:54;;;;;;;15.23;4.80;;;;;;;17.55;70.23;102547.47;5111552;28;20040;-54
2022/08/08 07:45:20;;;;;;;8.75;4.50;;;;;;;17.63;70.73;102538.59;5105538;28;20492;-52
2022/08/08 07:47:46;;;;;;;8.45;4.95;;;;;;;17.70;70.09;102539.59;5113796;28;20098;-52
2022/08/08 07:50:11;;;;;;;9.88;5.57;;;;;;;17.78;70.59;102536.94;5111296;27;20103;-54
2022/08/08 07:52:37;;;;;;;10.68;5.15;;;;;;;17.84;69.98;102530.91;5108036;28;20016;-51
2022/08/08 07:55:20;;;;;;;8.63;5.10;;;;;;;17.88;68.23;102537.59;5114886;28;20107;-53
2022/08/08 07:58:00;;;;;;;8.77;4.57;;;;;;;17.96;68.92;102541.28;5109925;28;20449;-52
2022/08/08 08:00:33;;;;;;;8.27;4.43;;;;;;;17.93;68.75;102537.09;5113204;27;20027;-52
2022/08/08 08:03:09;;;;;;;7.75;4.20;;;;;;;18.01;68.40;102547.00;5106771;28;20024;-52
2022/08/08 08:05:40;;;;;;;7.90;3.95;;;;;;;18.04;68.37;102549.31;5108635;28;20673;-53
2022/08/08 08:08:16;;;;;;;8.85;4.30;;;;;;;18.17;67.27;102551.53;5114684;28;20038;-50
2022/08/08 08:10:44;;;;;;;6.63;4.10;;;;;;;18.24;66.96;102557.03;5126234;27;20059;-52
2022/08/08 08:13:39;;;;;;;10.38;4.40;;;;;;;18.34;68.62;102555.00;5109722;28;20027;-51
2022/08/08 08:16:07;;;;;;;7.82;4.13;;;;;;;18.35;66.50;102554.00;5111158;28;20551;-53
2022/08/08 08:18:42;;;;;;;7.70;3.88;;;;;;;18.46;67.06;102549.28;5112906;28;20032;-51
2022/08/08 08:21:08;;;;;;;11.20;3.88;;;;;;;18.50;65.93;102561.34;5122277;27;20028;-52
2022/08/08 08:23:34;;;;;;;9.13;4.20;;;;;;;18.47;65.04;102559.00;5114046;28;20478;-52
2022/08/08 08:25:59;;;;;;;10.27;4.00;;;;;;;18.62;66.67;102565.34;5092010;28;20031;-52
2022/08/08 08:28:25;;;;;;;8.43;3.80;;;;;;;18.61;64.60;102563.69;5113639;28;20145;-52
2022/08/08 08:30:52;;;;;;;7.07;3.67;;;;;;;18.62;65.05;102568.03;5113592;27;20633;-52
2022/08/08 08:33:17;;;;;;;8.68;3.75;;;;;;;18.68;63.99;102569.19;5113434;28;20408;-50
2022/08/08 08:35:42;;;;;;;7.90;3.80;;;;;;;18.75;64.83;102569.34;5104447;28;20028;-51
2022/08/08 08:38:08;;;;;;;9.82;3.63;;;;;;;18.82;64.35;102570.31;5106634;28;20034;-51
2022/08/08 08:40:33;;;;;;;7.20;3.85;;;;;;;18.90;63.92;102564.88;5116074;27;20633;-51
2022/08/08 08:43:00;;;;;;;6.05;3.53;;;;;;;18.92;63.85;102570.94;5111542;28;20107;-53
2022/08/08 08:45:26;;;;;;;7.80;3.10;;;;;;;19.00;63.33;102567.34;5112603;28;20011;-51
2022/08/08 08:47:52;;;;;;;6.60;3.20;;;;;;;19.03;62.09;102568.88;5109374;28;20486;-54
2022/08/08 08:50:18;;;;;;;5.72;3.00;;;;;;;19.09;62.55;102576.25;5112136;27;20114;-53
2022/08/08 08:52:44;;;;;;;5.40;3.30;;;;;;;19.12;61.83;102575.91;5096745;28;20111;-56
2022/08/08 08:55:14;;;;;;;7.38;3.80;;;;;;;19.17;62.67;102578.06;5105063;28;20073;-57
2022/08/08 08:57:42;;;;;;;6.95;3.38;;;;;;;19.20;61.35;102573.16;5113522;28;20034;-56
2022/08/08 09:00:09;;;;;;;9.45;3.40;;;;;;;19.38;61.34;102569.34;5100331;27;20537;-56
2022/08/08 09:02:36;;;;;;;6.53;2.88;;;;;;;19.52;62.30;102570.44;5113207;28;20032;-56
2022/08/08 09:05:04;;;;;;;8.18;3.15;;;;;;;19.51;60.13;102567.94;5113096;28;20050;-56
2022/08/08 09:07:33;;;;;;;5.38;3.15;;;;;;;19.58;61.45;102574.25;5112767;28;20483;-56
2022/08/08 09:09:58;;;;;;;4.68;2.65;;;;;;;19.68;60.53;102572.16;5113870;27;20375;-56
2022/08/08 09:12:26;;;;;;;3.42;2.60;;;;;;;19.70;57.20;102572.84;5107397;28;20043;-56
2022/08/08 09:14:54;;;;;;;5.35;2.50;;;;;;;19.93;58.43;102577.34;5111295;28;20027;-57
2022/08/08 09:17:22;;;;;;;5.90;2.53;;;;;;;20.03;58.34;102572.59;5099080;28;20038;-58
2022/08/08 09:19:47;;;;;;;6.60;2.70;;;;;;;20.18;58.04;102576.31;5103647;28;20480;-56
2022/08/08 09:22:13;;;;;;;5.68;2.70;;;;;;;20.28;57.78;102572.34;5106961;28;20040;-58
2022/08/08 09:24:38;;;;;;;5.43;2.90;;;;;;;20.35;58.22;102571.59;5105615;28;20051;-56
2022/08/08 09:27:10;;;;;;;7.72;2.60;;;;;;;20.36;58.19;102578.66;5110986;28;20070;-57
2022/08/08 09:30:04;;;;;;;6.25;3.00;;;;;;;20.50;58.40;102577.84;5104809;28;20059;-57
2022/08/08 09:32:48;;;;;;;4.07;2.85;;;;;;;20.58;56.62;102573.38;5100912;28;20656;-57
2022/08/08 09:35:18;;;;;;;5.93;2.63;;;;;;;20.51;56.24;102579.50;5111126;28;20034;-57
2022/08/08 09:37:52;;;;;;;5.88;2.47;;;;;;;20.50;56.55;102577.84;5101935;28;20031;-57
2022/08/08 09:40:22;;;;;;;7.50;2.58;;;;;;;20.55;57.12;102580.81;5106317;27;20034;-60
2022/08/08 09:42:57;;;;;;;6.80;2.53;;;;;;;20.59;57.28;102570.50;5102724;28;20065;-58
2022/08/08 09:45:40;;;;;;;4.22;2.53;;;;;;;20.48;57.72;102579.03;5102875;28;20030;-56
2022/08/08 09:48:08;;;;;;;5.40;2.83;;;;;;;20.42;57.21;102575.22;5104921;28;20120;-59
2022/08/08 09:50:33;;;;;;;3.15;2.70;;;;;;;20.47;56.44;102566.59;5109922;27;20032;-57
2022/08/08 09:53:01;;;;;;;5.57;2.60;;;;;;;20.64;56.37;102561.84;5096756;28;20024;-57
2022/08/08 09:55:29;;;;;;;4.40;2.40;;;;;;;20.92;54.98;102566.59;5108627;28;20059;-56
2022/08/08 09:58:14;;;;;;;6.45;2.40;;;;;;;21.05;55.86;102572.13;5104969;28;20034;-57
2022/08/08 10:00:40;;;;;;;7.72;2.88;;;;;;;21.26;56.82;102561.56;5111594;28;20073;-56
2022/08/08 10:03:06;;;;;;;4.43;2.50;;;;;;;21.36;56.46;102571.00;5109665;28;20484;-57
2022/08/08 10:05:36;;;;;;;5.65;2.42;;;;;;;21.19;56.35;102569.59;5108211;28;20494;-58
2022/08/08 10:08:03;;;;;;;5.50;2.30;;;;;;;20.99;55.59;102575.59;5112034;28;20024;-58
2022/08/08 10:10:30;;;;;;;4.55;2.42;;;;;;;20.67;56.28;102566.88;5099929;28;20024;-57
2022/08/08 10:12:56;;;;;;;4.43;2.25;;;;;;;20.47;57.05;102575.50;5104896;28;20368;-57
2022/08/08 10:15:23;;;;;;;7.28;2.63;;;;;;;20.33;57.09;102581.72;5109027;28;20039;-58
2022/08/08 10:17:51;;;;;;;4.70;2.40;;;;;;;20.25;56.30;102567.34;5105244;28;20120;-57
2022/08/08 10:20:17;;;;;;;3.78;2.30;;;;;;;20.51;56.91;102566.03;5105180;28;20066;-58
2022/08/08 10:22:55;;;;;;;4.85;2.65;;;;;;;20.80;55.75;102569.72;5107309;28;20549;-57
2022/08/08 10:25:22;;;;;;;5.47;2.50;;;;;;;20.97;54.33;102561.47;5111354;28;20031;-57
2022/08/08 10:27:50;;;;;;;7.07;2.35;;;;;;;21.32;56.24;102561.63;5110587;28;20382;-58
2022/08/08 10:30:17;;;;;;;5.57;2.50;;;;;;;21.44;53.19;102563.81;5108063;28;20032;-57
2022/08/08 10:32:50;;;;;;;7.07;2.40;;;;;;;21.59;55.03;102559.19;5105843;28;20103;-58
2022/08/08 10:35:17;;;;;;;5.75;2.78;;;;;;;21.73;54.28;102560.19;5105066;28;20035;-57
2022/08/08 10:37:52;;;;;;;4.05;2.40;;;;;;;21.95;54.77;102565.53;5108461;28;20028;-56
2022/08/08 10:40:19;;;;;;;3.75;2.35;;;;;;;22.09;53.93;102563.78;5107513;28;20027;-57
2022/08/08 10:42:47;;;;;;;3.90;2.42;;;;;;;22.06;52.35;102564.19;5113653;28;20031;-56
2022/08/08 10:45:13;;;;;;;9.73;2.40;;;;;;;21.73;52.15;102564.75;5106027;28;20507;-57
2022/08/08 10:47:41;;;;;;;5.15;2.30;;;;;;;21.53;53.39;102561.81;5108631;28;20028;-57
2022/08/08 10:50:07;;;;;;;3.00;2.20;;;;;;;21.29;53.31;102558.47;5108890;28;20032;-57
2022/08/08 10:52:39;;;;;;;4.97;2.13;;;;;;;21.25;54.04;102563.41;5107485;28;20084;-56
2022/08/08 10:55:06;;;;;;;5.43;2.20;;;;;;;21.15;53.69;102569.13;5112414;28;20015;-58
2022/08/08 10:57:42;;;;;;;3.47;1.90;;;;;;;21.23;53.55;102560.09;5109534;28;20508;-57
2022/08/08 11:00:10;;;;;;;4.43;2.15;;;;;;;21.47;54.28;102560.75;5110893;27;20032;-57
2022/08/08 11:02:35;;;;;;;4.15;2.13;;;;;;;21.82;52.27;102558.19;5108965;28;20027;-58
2022/08/08 11:05:05;;;;;;;3.85;2.00;;;;;;;22.13;51.99;102558.81;5114504;28;20024;-59
2022/08/08 11:07:33;;;;;;;3.42;2.20;;;;;;;22.33;53.56;102556.22;5106989;28;20032;-57
2022/08/08 11:10:01;;;;;;;3.90;2.10;;;;;;;22.21;50.80;102552.41;5105550;27;20036;-57
2022/08/08 11:12:27;;;;;;;5.30;2.10;;;;;;;22.01;50.86;102550.44;5107670;28;20127;-57
2022/08/08 11:14:55;;;;;;;5.28;2.00;;;;;;;21.73;49.85;102556.63;5106250;28;20606;-57
2022/08/08 11:17:31;;;;;;;2.60;1.92;;;;;;;21.72;50.73;102552.28;5108864;28;20070;-57
2022/08/08 11:19:57;;;;;;;3.78;2.00;;;;;;;21.71;50.59;102550.59;5100880;28;20385;-56
2022/08/08 11:22:26;;;;;;;3.47;2.00;;;;;;;21.73;52.56;102553.94;5107497;28;20039;-57
2022/08/08 11:24:56;;;;;;;2.65;1.70;;;;;;;21.70;51.60;102552.47;5094938;28;20387;-57
2022/08/08 11:27:24;;;;;;;5.32;1.80;;;;;;;21.70;51.93;102546.25;5113607;28;20168;-56
2022/08/08 11:29:52;;;;;;;5.68;2.00;;;;;;;21.66;52.91;102544.94;5107734;27;20023;-56
2022/08/08 11:32:18;;;;;;;3.55;1.70;;;;;;;21.68;50.74;102545.56;5109075;28;20414;-57
2022/08/08 11:34:49;;;;;;;2.90;1.90;;;;;;;21.59;51.58;102545.69;5105432;28;20051;-57
2022/08/08 11:37:16;;;;;;;3.15;1.95;;;;;;;21.47;50.74;102536.47;5111040;28;20034;-58
2022/08/08 11:39:42;;;;;;;5.13;2.13;;;;;;;21.55;52.14;102541.72;5107809;27;20028;-56
2022/08/08 11:42:07;;;;;;;2.88;1.80;;;;;;;21.50;51.59;102536.06;5113735;28;20050;-56
2022/08/08 11:44:33;;;;;;;3.05;1.70;;;;;;;21.43;50.32;102537.84;5111499;28;20036;-57
2022/08/08 11:46:59;;;;;;;5.25;2.00;;;;;;;21.42;50.59;102541.59;5112897;28;20035;-58
2022/08/08 11:49:25;;;;;;;2.80;1.73;;;;;;;21.37;49.63;102540.31;5109525;28;20467;-58